sensor_id;sensor_type;location;lat;lon;timestamp;temperature;humidity
14670;DHT22;7423;48.722;9.350;2023-04-24T00:01:21;15.30;99.90
14670;DHT22;7423;48.722;9.350;2023-04-24T00:03:48;15.20;99.90
14670;DHT22;7423;48.722;9.350;2023-04-24T00:06:15;15.10;99.90
14670;DHT22;7423;48.722;9.350;2023-04-24T00:08:43;15.10;99.90
14670;DHT22;7423;48.722;9.350;2023-04-24T00:11:10;14.90;99.90
14670;DHT22;7423;48.722;9.350;2023-04-24T00:13:37;15.00;99.90
14670;DHT22;7423;48.722;9.350;2023-04-24T00:16:04;14.90;99.90
14670;DHT22;7423;48.722;9.350;2023-04-24T00:18:32;14.90;99.90
14670;DHT22;7423;48.722;9.350;2023-04-24T00:20:59;14.90;99.90
14670;DHT22;7423;48.722;9.350;2023-04-24T00:23:26;14.90;99.90
14670;DHT22;7423;48.722;9.350;2023-04-24T00:25:54;14.80;99.90
14670;DHT22;7423;48.722;9.350;2023-04-24T00:28:20;14.80;99.90
14670;DHT22;7423;48.722;9.350;2023-04-24T00:30:47;14.80;99.90
14670;DHT22;7423;48.722;9.350;2023-04-24T00:33:14;14.80;99.90
14670;DHT22;7423;48.722;9.350;2023-04-24T00:35:41;14.80;99.90
14670;DHT22;7423;48.722;9.350;2023-04-24T00:38:08;14.70;99.90
14670;DHT22;7423;48.722;9.350;2023-04-24T00:40:35;14.70;99.90
14670;DHT22;7423;48.722;9.350;2023-04-24T00:43:01;15.50;99.90
14670;DHT22;7423;48.722;9.350;2023-04-24T00:45:28;14.70;99.90
14670;DHT22;7423;48.722;9.350;2023-04-24T00:47:58;14.60;99.90
14670;DHT22;7423;48.722;9.350;2023-04-24T00:50:25;14.70;99.90
14670;DHT22;7423;48.722;9.350;2023-04-24T00:52:52;14.70;99.90
14670;DHT22;7423;48.722;9.350;2023-04-24T00:55:20;14.70;99.90
14670;DHT22;7423;48.722;9.350;2023-04-24T00:57:47;14.70;99.90
14670;DHT22;7423;48.722;9.350;2023-04-24T01:00:15;14.60;99.90
14670;DHT22;7423;48.722;9.350;2023-04-24T01:02:44;14.80;99.90
14670;DHT22;7423;48.722;9.350;2023-04-24T01:05:14;14.80;99.90
14670;DHT22;7423;48.722;9.350;2023-04-24T01:07:43;14.80;99.90
14670;DHT22;7423;48.722;9.350;2023-04-24T01:10:13;14.90;99.90
14670;DHT22;7423;48.722;9.350;2023-04-24T01:12:40;14.90;99.90
14670;DHT22;7423;48.722;9.350;2023-04-24T01:15:08;14.90;99.90
14670;DHT22;7423;48.722;9.350;2023-04-24T01:17:35;15.00;99.90
14670;DHT22;7423;48.722;9.350;2023-04-24T01:20:02;15.00;99.90
14670;DHT22;7423;48.722;9.350;2023-04-24T01:22:34;15.10;99.90
14670;DHT22;7423;48.722;9.350;2023-04-24T01:25:02;15.10;99.90
14670;DHT22;7423;48.722;9.350;2023-04-24T01:27:30;15.10;99.90
14670;DHT22;7423;48.722;9.350;2023-04-24T01:29:57;15.10;99.90
14670;DHT22;7423;48.722;9.350;2023-04-24T01:32:25;15.10;99.90
14670;DHT22;7423;48.722;9.350;2023-04-24T01:34:52;15.10;99.90
14670;DHT22;7423;48.722;9.350;2023-04-24T01:37:19;15.00;99.90
14670;DHT22;7423;48.722;9.350;2023-04-24T01:39:46;15.10;99.90
14670;DHT22;7423;48.722;9.350;2023-04-24T01:42:13;15.10;99.90
14670;DHT22;7423;48.722;9.350;2023-04-24T01:44:41;15.00;99.90
14670;DHT22;7423;48.722;9.350;2023-04-24T01:47:08;15.00;99.90
14670;DHT22;7423;48.722;9.350;2023-04-24T01:49:37;15.00;99.90
14670;DHT22;7423;48.722;9.350;2023-04-24T01:52:04;14.90;99.90
14670;DHT22;7423;48.722;9.350;2023-04-24T01:54:32;15.00;99.90
14670;DHT22;7423;48.722;9.350;2023-04-24T01:56:59;14.80;99.90
14670;DHT22;7423;48.722;9.350;2023-04-24T01:59:28;14.70;99.90
14670;DHT22;7423;48.722;9.350;2023-04-24T02:01:56;14.70;99.90
14670;DHT22;7423;48.722;9.350;2023-04-24T02:04:23;14.70;99.90
14670;DHT22;7423;48.722;9.350;2023-04-24T02:06:50;14.70;99.90
14670;DHT22;7423;48.722;9.350;2023-04-24T02:09:17;14.70;99.90
14670;DHT22;7423;48.722;9.350;2023-04-24T02:11:44;14.80;99.90
14670;DHT22;7423;48.722;9.350;2023-04-24T02:14:11;14.80;99.90
14670;DHT22;7423;48.722;9.350;2023-04-24T02:16:38;14.70;99.90
14670;DHT22;7423;48.722;9.350;2023-04-24T02:19:05;14.70;99.90
14670;DHT22;7423;48.722;9.350;2023-04-24T02:21:32;14.70;99.90
14670;DHT22;7423;48.722;9.350;2023-04-24T02:23:59;14.70;99.90
14670;DHT22;7423;48.722;9.350;2023-04-24T02:26:26;14.80;99.90
14670;DHT22;7423;48.722;9.350;2023-04-24T02:28:53;14.80;99.90
14670;DHT22;7423;48.722;9.350;2023-04-24T02:31:20;14.80;99.90
14670;DHT22;7423;48.722;9.350;2023-04-24T02:33:47;14.80;99.90
14670;DHT22;7423;48.722;9.350;2023-04-24T02:36:14;14.80;99.90
14670;DHT22;7423;48.722;9.350;2023-04-24T02:38:40;14.80;99.90
14670;DHT22;7423;48.722;9.350;2023-04-24T02:41:07;14.80;99.90
14670;DHT22;7423;48.722;9.350;2023-04-24T02:43:34;14.90;99.90
14670;DHT22;7423;48.722;9.350;2023-04-24T02:46:01;14.90;99.90
14670;DHT22;7423;48.722;9.350;2023-04-24T02:48:28;14.80;99.90
14670;DHT22;7423;48.722;9.350;2023-04-24T02:50:55;14.90;99.90
14670;DHT22;7423;48.722;9.350;2023-04-24T02:53:22;14.80;99.90
14670;DHT22;7423;48.722;9.350;2023-04-24T02:55:49;14.90;99.90
14670;DHT22;7423;48.722;9.350;2023-04-24T02:58:16;15.00;99.90
14670;DHT22;7423;48.722;9.350;2023-04-24T03:00:43;15.00;99.90
14670;DHT22;7423;48.722;9.350;2023-04-24T03:03:10;15.00;99.90
14670;DHT22;7423;48.722;9.350;2023-04-24T03:05:37;15.00;99.90
14670;DHT22;7423;48.722;9.350;2023-04-24T03:08:04;15.00;99.90
14670;DHT22;7423;48.722;9.350;2023-04-24T03:10:31;15.00;99.90
14670;DHT22;7423;48.722;9.350;2023-04-24T03:12:58;15.00;99.90
14670;DHT22;7423;48.722;9.350;2023-04-24T03:15:26;15.00;99.90
14670;DHT22;7423;48.722;9.350;2023-04-24T03:17:53;15.10;99.90
14670;DHT22;7423;48.722;9.350;2023-04-24T03:20:22;15.00;99.90
14670;DHT22;7423;48.722;9.350;2023-04-24T03:22:49;15.00;99.90
14670;DHT22;7423;48.722;9.350;2023-04-24T03:25:16;15.10;99.90
14670;DHT22;7423;48.722;9.350;2023-04-24T03:27:43;15.10;99.90
14670;DHT22;7423;48.722;9.350;2023-04-24T03:30:10;15.00;99.90
14670;DHT22;7423;48.722;9.350;2023-04-24T03:32:37;15.00;99.90
14670;DHT22;7423;48.722;9.350;2023-04-24T03:35:07;14.80;99.90
14670;DHT22;7423;48.722;9.350;2023-04-24T03:37:34;14.60;99.90
14670;DHT22;7423;48.722;9.350;2023-04-24T03:40:02;14.70;99.90
14670;DHT22;7423;48.722;9.350;2023-04-24T03:42:29;14.70;99.90
14670;DHT22;7423;48.722;9.350;2023-04-24T03:44:56;14.80;99.90
14670;DHT22;7423;48.722;9.350;2023-04-24T03:47:23;14.70;99.90
14670;DHT22;7423;48.722;9.350;2023-04-24T03:49:50;14.50;99.90
14670;DHT22;7423;48.722;9.350;2023-04-24T03:52:17;14.70;99.90
14670;DHT22;7423;48.722;9.350;2023-04-24T03:54:44;14.70;99.90
14670;DHT22;7423;48.722;9.350;2023-04-24T03:57:11;14.70;99.90
14670;DHT22;7423;48.722;9.350;2023-04-24T03:59:38;14.50;99.90
14670;DHT22;7423;48.722;9.350;2023-04-24T04:02:05;14.50;99.90
14670;DHT22;7423;48.722;9.350;2023-04-24T04:04:31;14.50;99.90
14670;DHT22;7423;48.722;9.350;2023-04-24T04:06:59;14.60;99.90
14670;DHT22;7423;48.722;9.350;2023-04-24T04:09:29;14.60;99.90
14670;DHT22;7423;48.722;9.350;2023-04-24T04:11:56;14.50;99.90
14670;DHT22;7423;48.722;9.350;2023-04-24T04:14:23;14.50;99.90
14670;DHT22;7423;48.722;9.350;2023-04-24T04:16:49;14.50;99.90
14670;DHT22;7423;48.722;9.350;2023-04-24T04:19:20;14.60;99.90
14670;DHT22;7423;48.722;9.350;2023-04-24T04:21:47;14.60;99.90
14670;DHT22;7423;48.722;9.350;2023-04-24T04:24:19;14.60;99.90
14670;DHT22;7423;48.722;9.350;2023-04-24T04:26:47;14.50;99.90
14670;DHT22;7423;48.722;9.350;2023-04-24T04:29:14;14.50;99.90
14670;DHT22;7423;48.722;9.350;2023-04-24T04:31:44;14.50;99.90
14670;DHT22;7423;48.722;9.350;2023-04-24T04:34:11;14.20;99.90
14670;DHT22;7423;48.722;9.350;2023-04-24T04:36:39;13.90;99.90
14670;DHT22;7423;48.722;9.350;2023-04-24T04:39:07;13.80;99.90
14670;DHT22;7423;48.722;9.350;2023-04-24T04:41:34;14.00;99.90
14670;DHT22;7423;48.722;9.350;2023-04-24T04:44:04;14.20;99.90
14670;DHT22;7423;48.722;9.350;2023-04-24T04:46:31;14.30;99.90
14670;DHT22;7423;48.722;9.350;2023-04-24T04:49:02;14.40;99.90
14670;DHT22;7423;48.722;9.350;2023-04-24T04:51:29;14.50;99.90
14670;DHT22;7423;48.722;9.350;2023-04-24T04:53:57;14.50;99.90
14670;DHT22;7423;48.722;9.350;2023-04-24T04:56:24;14.60;99.90
14670;DHT22;7423;48.722;9.350;2023-04-24T04:58:51;14.60;99.90
14670;DHT22;7423;48.722;9.350;2023-04-24T05:01:18;14.40;99.90
14670;DHT22;7423;48.722;9.350;2023-04-24T05:03:45;14.30;99.90
14670;DHT22;7423;48.722;9.350;2023-04-24T05:06:12;14.10;99.90
14670;DHT22;7423;48.722;9.350;2023-04-24T05:08:39;13.80;99.90
14670;DHT22;7423;48.722;9.350;2023-04-24T05:11:06;13.70;99.90
14670;DHT22;7423;48.722;9.350;2023-04-24T05:13:33;13.70;99.90
14670;DHT22;7423;48.722;9.350;2023-04-24T05:16:06;13.70;99.90
14670;DHT22;7423;48.722;9.350;2023-04-24T05:18:33;13.70;99.90
14670;DHT22;7423;48.722;9.350;2023-04-24T05:21:00;13.60;99.90
14670;DHT22;7423;48.722;9.350;2023-04-24T05:23:27;13.70;99.90
14670;DHT22;7423;48.722;9.350;2023-04-24T05:25:54;13.60;99.90
14670;DHT22;7423;48.722;9.350;2023-04-24T05:28:21;13.60;99.90
14670;DHT22;7423;48.722;9.350;2023-04-24T05:30:48;13.60;99.90
14670;DHT22;7423;48.722;9.350;2023-04-24T05:33:15;13.60;99.90
14670;DHT22;7423;48.722;9.350;2023-04-24T05:35:42;13.60;99.90
14670;DHT22;7423;48.722;9.350;2023-04-24T05:38:13;13.60;99.90
14670;DHT22;7423;48.722;9.350;2023-04-24T05:40:40;13.60;99.90
14670;DHT22;7423;48.722;9.350;2023-04-24T05:43:07;13.60;99.90
14670;DHT22;7423;48.722;9.350;2023-04-24T05:45:34;13.60;99.90
14670;DHT22;7423;48.722;9.350;2023-04-24T05:48:03;13.70;99.90
14670;DHT22;7423;48.722;9.350;2023-04-24T05:50:30;13.80;99.90
14670;DHT22;7423;48.722;9.350;2023-04-24T05:52:57;13.80;99.90
14670;DHT22;7423;48.722;9.350;2023-04-24T05:55:25;13.70;99.90
14670;DHT22;7423;48.722;9.350;2023-04-24T05:57:52;13.70;99.90
14670;DHT22;7423;48.722;9.350;2023-04-24T06:00:19;13.70;99.90
14670;DHT22;7423;48.722;9.350;2023-04-24T06:02:46;13.70;99.90
14670;DHT22;7423;48.722;9.350;2023-04-24T06:05:13;13.70;99.90
14670;DHT22;7423;48.722;9.350;2023-04-24T06:07:41;13.70;99.90
14670;DHT22;7423;48.722;9.350;2023-04-24T06:10:09;13.70;99.90
14670;DHT22;7423;48.722;9.350;2023-04-24T06:12:36;13.70;99.90
14670;DHT22;7423;48.722;9.350;2023-04-24T06:15:04;13.70;99.90
14670;DHT22;7423;48.722;9.350;2023-04-24T06:17:31;13.70;99.90
14670;DHT22;7423;48.722;9.350;2023-04-24T06:19:58;13.70;99.90
14670;DHT22;7423;48.722;9.350;2023-04-24T06:22:25;13.80;99.90
14670;DHT22;7423;48.722;9.350;2023-04-24T06:24:52;13.70;99.90
14670;DHT22;7423;48.722;9.350;2023-04-24T06:27:19;13.70;99.90
14670;DHT22;7423;48.722;9.350;2023-04-24T06:29:46;13.80;99.90
14670;DHT22;7423;48.722;9.350;2023-04-24T06:32:19;13.80;99.90
14670;DHT22;7423;48.722;9.350;2023-04-24T06:34:46;13.80;99.90
14670;DHT22;7423;48.722;9.350;2023-04-24T06:37:14;13.80;99.90
14670;DHT22;7423;48.722;9.350;2023-04-24T06:39:42;13.90;99.90
14670;DHT22;7423;48.722;9.350;2023-04-24T06:42:09;13.80;99.90
14670;DHT22;7423;48.722;9.350;2023-04-24T06:44:36;13.80;99.90
14670;DHT22;7423;48.722;9.350;2023-04-24T06:47:08;13.80;99.90
14670;DHT22;7423;48.722;9.350;2023-04-24T06:49:36;13.80;99.90
14670;DHT22;7423;48.722;9.350;2023-04-24T06:52:04;13.80;99.90
14670;DHT22;7423;48.722;9.350;2023-04-24T06:54:32;13.80;99.90
14670;DHT22;7423;48.722;9.350;2023-04-24T06:57:00;13.80;99.90
14670;DHT22;7423;48.722;9.350;2023-04-24T06:59:29;13.90;99.90
14670;DHT22;7423;48.722;9.350;2023-04-24T07:01:57;13.80;99.90
14670;DHT22;7423;48.722;9.350;2023-04-24T07:04:24;13.90;99.90
14670;DHT22;7423;48.722;9.350;2023-04-24T07:06:52;14.10;99.90
14670;DHT22;7423;48.722;9.350;2023-04-24T07:09:22;14.20;99.90
14670;DHT22;7423;48.722;9.350;2023-04-24T07:11:50;14.20;99.90
14670;DHT22;7423;48.722;9.350;2023-04-24T07:14:18;14.20;99.90
14670;DHT22;7423;48.722;9.350;2023-04-24T07:16:45;14.20;99.90
14670;DHT22;7423;48.722;9.350;2023-04-24T07:19:13;14.20;99.90
14670;DHT22;7423;48.722;9.350;2023-04-24T07:21:40;14.20;99.90
14670;DHT22;7423;48.722;9.350;2023-04-24T07:24:07;14.30;99.90
14670;DHT22;7423;48.722;9.350;2023-04-24T07:26:37;14.30;99.90
14670;DHT22;7423;48.722;9.350;2023-04-24T07:29:05;14.30;99.90
14670;DHT22;7423;48.722;9.350;2023-04-24T07:31:32;14.30;99.90
14670;DHT22;7423;48.722;9.350;2023-04-24T07:34:01;14.30;99.90
14670;DHT22;7423;48.722;9.350;2023-04-24T07:36:28;14.40;99.90
14670;DHT22;7423;48.722;9.350;2023-04-24T07:38:55;14.40;99.90
14670;DHT22;7423;48.722;9.350;2023-04-24T07:41:23;14.40;99.90
14670;DHT22;7423;48.722;9.350;2023-04-24T07:43:51;14.30;99.90
14670;DHT22;7423;48.722;9.350;2023-04-24T07:46:19;14.40;99.90
14670;DHT22;7423;48.722;9.350;2023-04-24T07:48:46;14.40;99.90
14670;DHT22;7423;48.722;9.350;2023-04-24T07:51:31;14.30;99.90
14670;DHT22;7423;48.722;9.350;2023-04-24T07:54:00;14.30;99.90
14670;DHT22;7423;48.722;9.350;2023-04-24T07:56:26;14.20;99.90
14670;DHT22;7423;48.722;9.350;2023-04-24T07:58:53;14.20;99.90
14670;DHT22;7423;48.722;9.350;2023-04-24T08:01:20;14.20;99.90
14670;DHT22;7423;48.722;9.350;2023-04-24T08:03:47;14.30;99.90
14670;DHT22;7423;48.722;9.350;2023-04-24T08:06:14;14.10;99.90
14670;DHT22;7423;48.722;9.350;2023-04-24T08:08:41;14.10;99.90
14670;DHT22;7423;48.722;9.350;2023-04-24T08:11:08;14.20;99.90
14670;DHT22;7423;48.722;9.350;2023-04-24T08:13:35;14.10;99.90
14670;DHT22;7423;48.722;9.350;2023-04-24T08:16:02;14.00;99.90
14670;DHT22;7423;48.722;9.350;2023-04-24T08:18:29;14.00;99.90
14670;DHT22;7423;48.722;9.350;2023-04-24T08:20:56;14.20;99.90
14670;DHT22;7423;48.722;9.350;2023-04-24T08:23:28;14.30;99.90
14670;DHT22;7423;48.722;9.350;2023-04-24T08:25:56;14.20;99.90
14670;DHT22;7423;48.722;9.350;2023-04-24T08:28:23;14.30;99.90
14670;DHT22;7423;48.722;9.350;2023-04-24T08:30:50;14.30;99.90
14670;DHT22;7423;48.722;9.350;2023-04-24T08:33:24;14.40;99.90
14670;DHT22;7423;48.722;9.350;2023-04-24T08:35:52;14.60;99.90
14670;DHT22;7423;48.722;9.350;2023-04-24T08:38:19;14.60;99.90
14670;DHT22;7423;48.722;9.350;2023-04-24T08:40:47;14.70;99.90
14670;DHT22;7423;48.722;9.350;2023-04-24T08:43:16;14.70;99.90
14670;DHT22;7423;48.722;9.350;2023-04-24T08:45:43;14.60;99.90
14670;DHT22;7423;48.722;9.350;2023-04-24T08:48:11;14.70;99.90
14670;DHT22;7423;48.722;9.350;2023-04-24T08:50:56;14.70;99.90
14670;DHT22;7423;48.722;9.350;2023-04-24T08:53:24;14.80;99.90
14670;DHT22;7423;48.722;9.350;2023-04-24T08:55:54;14.70;99.90
14670;DHT22;7423;48.722;9.350;2023-04-24T08:58:25;14.70;99.90
14670;DHT22;7423;48.722;9.350;2023-04-24T09:00:56;14.80;99.90
14670;DHT22;7423;48.722;9.350;2023-04-24T09:03:24;14.70;99.90
14670;DHT22;7423;48.722;9.350;2023-04-24T09:05:55;14.60;99.90
14670;DHT22;7423;48.722;9.350;2023-04-24T09:08:25;14.70;99.90
14670;DHT22;7423;48.722;9.350;2023-04-24T09:10:52;14.60;99.90
14670;DHT22;7423;48.722;9.350;2023-04-24T09:13:20;14.70;99.90
14670;DHT22;7423;48.722;9.350;2023-04-24T09:15:47;14.60;99.90
14670;DHT22;7423;48.722;9.350;2023-04-24T09:18:14;14.50;99.90
14670;DHT22;7423;48.722;9.350;2023-04-24T09:21:20;14.60;99.90
14670;DHT22;7423;48.722;9.350;2023-04-24T09:23:44;14.70;99.90
14670;DHT22;7423;48.722;9.350;2023-04-24T09:26:11;14.80;99.90
14670;DHT22;7423;48.722;9.350;2023-04-24T09:28:40;14.80;99.90
14670;DHT22;7423;48.722;9.350;2023-04-24T09:31:11;14.70;99.90
14670;DHT22;7423;48.722;9.350;2023-04-24T09:33:40;14.80;99.90
14670;DHT22;7423;48.722;9.350;2023-04-24T09:36:30;14.80;99.90
14670;DHT22;7423;48.722;9.350;2023-04-24T09:39:14;14.70;99.90
14670;DHT22;7423;48.722;9.350;2023-04-24T09:41:46;14.60;99.90
14670;DHT22;7423;48.722;9.350;2023-04-24T09:44:22;14.50;99.90
14670;DHT22;7423;48.722;9.350;2023-04-24T09:47:00;14.50;99.90
14670;DHT22;7423;48.722;9.350;2023-04-24T09:49:30;14.50;99.90
14670;DHT22;7423;48.722;9.350;2023-04-24T09:52:08;14.50;99.90
14670;DHT22;7423;48.722;9.350;2023-04-24T09:54:37;14.50;99.90
14670;DHT22;7423;48.722;9.350;2023-04-24T09:57:06;14.60;99.90
14670;DHT22;7423;48.722;9.350;2023-04-24T09:59:34;14.70;99.90
14670;DHT22;7423;48.722;9.350;2023-04-24T10:02:17;14.80;99.50
14670;DHT22;7423;48.722;9.350;2023-04-24T10:04:55;14.80;99.00
14670;DHT22;7423;48.722;9.350;2023-04-24T10:07:26;14.80;99.20
14670;DHT22;7423;48.722;9.350;2023-04-24T10:09:53;14.80;99.00
14670;DHT22;7423;48.722;9.350;2023-04-24T10:12:21;14.90;99.20
14670;DHT22;7423;48.722;9.350;2023-04-24T10:14:49;15.00;98.30
14670;DHT22;7423;48.722;9.350;2023-04-24T10:17:16;15.00;98.40
14670;DHT22;7423;48.722;9.350;2023-04-24T10:19:45;15.00;97.60
14670;DHT22;7423;48.722;9.350;2023-04-24T10:22:12;15.10;98.30
14670;DHT22;7423;48.722;9.350;2023-04-24T10:24:42;15.10;97.30
14670;DHT22;7423;48.722;9.350;2023-04-24T10:27:11;14.90;96.80
14670;DHT22;7423;48.722;9.350;2023-04-24T10:29:41;14.90;97.50
14670;DHT22;7423;48.722;9.350;2023-04-24T10:32:10;15.00;98.00
14670;DHT22;7423;48.722;9.350;2023-04-24T10:34:38;14.90;97.40
14670;DHT22;7423;48.722;9.350;2023-04-24T10:37:05;14.90;96.90
14670;DHT22;7423;48.722;9.350;2023-04-24T10:39:32;14.90;96.70
14670;DHT22;7423;48.722;9.350;2023-04-24T10:42:00;14.80;97.20
14670;DHT22;7423;48.722;9.350;2023-04-24T10:44:35;15.00;97.30
14670;DHT22;7423;48.722;9.350;2023-04-24T10:47:03;15.20;96.10
14670;DHT22;7423;48.722;9.350;2023-04-24T10:49:31;15.30;95.90
14670;DHT22;7423;48.722;9.350;2023-04-24T10:52:04;15.60;95.10
14670;DHT22;7423;48.722;9.350;2023-04-24T10:54:44;16.00;94.80
14670;DHT22;7423;48.722;9.350;2023-04-24T10:59:45;16.40;95.40
14670;DHT22;7423;48.722;9.350;2023-04-24T11:02:16;16.40;95.20
14670;DHT22;7423;48.722;9.350;2023-04-24T11:04:44;16.40;94.90
14670;DHT22;7423;48.722;9.350;2023-04-24T11:07:12;16.20;95.10
14670;DHT22;7423;48.722;9.350;2023-04-24T11:09:42;16.10;95.40
14670;DHT22;7423;48.722;9.350;2023-04-24T11:12:11;16.00;95.60
14670;DHT22;7423;48.722;9.350;2023-04-24T11:17:35;16.00;95.90
14670;DHT22;7423;48.722;9.350;2023-04-24T11:20:05;16.00;96.20
14670;DHT22;7423;48.722;9.350;2023-04-24T11:22:53;15.80;96.00
14670;DHT22;7423;48.722;9.350;2023-04-24T11:25:21;15.30;96.30
14670;DHT22;7423;48.722;9.350;2023-04-24T11:28:03;15.30;96.60
14670;DHT22;7423;48.722;9.350;2023-04-24T11:30:32;15.30;96.90
14670;DHT22;7423;48.722;9.350;2023-04-24T11:33:04;15.30;97.60
14670;DHT22;7423;48.722;9.350;2023-04-24T11:35:35;15.20;97.90
14670;DHT22;7423;48.722;9.350;2023-04-24T11:38:06;15.10;98.00
14670;DHT22;7423;48.722;9.350;2023-04-24T11:40:51;15.10;98.20
14670;DHT22;7423;48.722;9.350;2023-04-24T11:43:18;15.10;97.70
14670;DHT22;7423;48.722;9.350;2023-04-24T11:45:49;15.00;97.80
14670;DHT22;7423;48.722;9.350;2023-04-24T11:48:20;15.10;97.80
14670;DHT22;7423;48.722;9.350;2023-04-24T11:50:49;15.00;98.10
14670;DHT22;7423;48.722;9.350;2023-04-24T11:53:19;15.10;98.10
14670;DHT22;7423;48.722;9.350;2023-04-24T11:55:47;15.20;98.00
14670;DHT22;7423;48.722;9.350;2023-04-24T11:58:14;15.20;98.00
14670;DHT22;7423;48.722;9.350;2023-04-24T12:00:41;14.90;98.50
14670;DHT22;7423;48.722;9.350;2023-04-24T12:03:09;14.90;99.00
14670;DHT22;7423;48.722;9.350;2023-04-24T12:05:39;15.00;98.60
14670;DHT22;7423;48.722;9.350;2023-04-24T12:08:06;14.80;98.30
14670;DHT22;7423;48.722;9.350;2023-04-24T12:10:33;14.90;98.40
14670;DHT22;7423;48.722;9.350;2023-04-24T12:13:01;15.00;98.20
14670;DHT22;7423;48.722;9.350;2023-04-24T12:15:28;15.00;97.80
14670;DHT22;7423;48.722;9.350;2023-04-24T12:17:56;15.10;97.90
14670;DHT22;7423;48.722;9.350;2023-04-24T12:20:28;15.10;98.30
14670;DHT22;7423;48.722;9.350;2023-04-24T12:22:57;15.20;98.30
14670;DHT22;7423;48.722;9.350;2023-04-24T12:25:38;15.20;98.50
14670;DHT22;7423;48.722;9.350;2023-04-24T12:30:34;15.20;98.50
14670;DHT22;7423;48.722;9.350;2023-04-24T12:33:02;15.20;98.30
14670;DHT22;7423;48.722;9.350;2023-04-24T12:35:31;15.00;98.60
14670;DHT22;7423;48.722;9.350;2023-04-24T12:38:07;14.70;98.60
14670;DHT22;7423;48.722;9.350;2023-04-24T12:40:35;14.70;99.10
14670;DHT22;7423;48.722;9.350;2023-04-24T12:43:12;14.70;99.40
14670;DHT22;7423;48.722;9.350;2023-04-24T12:45:39;14.70;99.60
14670;DHT22;7423;48.722;9.350;2023-04-24T12:48:06;14.80;99.60
14670;DHT22;7423;48.722;9.350;2023-04-24T12:50:33;14.70;99.50
14670;DHT22;7423;48.722;9.350;2023-04-24T12:53:00;14.80;99.10
14670;DHT22;7423;48.722;9.350;2023-04-24T12:55:27;14.60;99.30
14670;DHT22;7423;48.722;9.350;2023-04-24T12:57:54;14.60;99.30
14670;DHT22;7423;48.722;9.350;2023-04-24T13:00:22;14.70;98.90
14670;DHT22;7423;48.722;9.350;2023-04-24T13:02:49;14.80;98.90
14670;DHT22;7423;48.722;9.350;2023-04-24T13:05:16;14.80;99.10
14670;DHT22;7423;48.722;9.350;2023-04-24T13:07:43;14.90;99.20
14670;DHT22;7423;48.722;9.350;2023-04-24T13:10:11;15.00;98.80
14670;DHT22;7423;48.722;9.350;2023-04-24T13:12:39;14.80;99.20
14670;DHT22;7423;48.722;9.350;2023-04-24T13:15:07;14.60;99.40
14670;DHT22;7423;48.722;9.350;2023-04-24T13:17:34;14.60;99.20
14670;DHT22;7423;48.722;9.350;2023-04-24T13:20:01;14.40;99.50
14670;DHT22;7423;48.722;9.350;2023-04-24T13:22:28;14.40;99.70
14670;DHT22;7423;48.722;9.350;2023-04-24T13:24:54;14.50;99.70
14670;DHT22;7423;48.722;9.350;2023-04-24T13:27:22;14.60;99.30
14670;DHT22;7423;48.722;9.350;2023-04-24T13:29:49;14.50;99.60
14670;DHT22;7423;48.722;9.350;2023-04-24T13:32:17;14.50;99.90
14670;DHT22;7423;48.722;9.350;2023-04-24T13:34:44;14.50;99.90
14670;DHT22;7423;48.722;9.350;2023-04-24T13:37:11;14.40;99.90
14670;DHT22;7423;48.722;9.350;2023-04-24T13:39:38;14.50;99.90
14670;DHT22;7423;48.722;9.350;2023-04-24T13:42:04;14.60;99.90
14670;DHT22;7423;48.722;9.350;2023-04-24T13:44:31;14.70;99.90
14670;DHT22;7423;48.722;9.350;2023-04-24T13:46:59;14.70;99.90
14670;DHT22;7423;48.722;9.350;2023-04-24T13:49:27;14.70;99.90
14670;DHT22;7423;48.722;9.350;2023-04-24T13:51:55;14.80;99.90
14670;DHT22;7423;48.722;9.350;2023-04-24T13:54:22;14.80;99.90
14670;DHT22;7423;48.722;9.350;2023-04-24T13:56:53;14.90;99.90
14670;DHT22;7423;48.722;9.350;2023-04-24T13:59:23;15.00;99.90
14670;DHT22;7423;48.722;9.350;2023-04-24T14:01:50;14.90;99.90
14670;DHT22;7423;48.722;9.350;2023-04-24T14:04:17;14.90;99.60
14670;DHT22;7423;48.722;9.350;2023-04-24T14:06:45;14.90;99.50
14670;DHT22;7423;48.722;9.350;2023-04-24T14:09:12;14.90;99.20
14670;DHT22;7423;48.722;9.350;2023-04-24T14:11:39;14.90;99.40
14670;DHT22;7423;48.722;9.350;2023-04-24T14:14:07;14.80;99.80
14670;DHT22;7423;48.722;9.350;2023-04-24T14:16:34;14.80;99.90
14670;DHT22;7423;48.722;9.350;2023-04-24T14:19:01;14.70;99.90
14670;DHT22;7423;48.722;9.350;2023-04-24T14:21:28;14.70;99.90
14670;DHT22;7423;48.722;9.350;2023-04-24T14:23:55;14.60;99.90
14670;DHT22;7423;48.722;9.350;2023-04-24T14:26:22;14.60;99.90
14670;DHT22;7423;48.722;9.350;2023-04-24T14:28:49;14.70;99.90
14670;DHT22;7423;48.722;9.350;2023-04-24T14:31:17;14.60;99.90
14670;DHT22;7423;48.722;9.350;2023-04-24T14:33:44;14.70;99.90
14670;DHT22;7423;48.722;9.350;2023-04-24T14:36:12;14.80;99.90
14670;DHT22;7423;48.722;9.350;2023-04-24T14:38:39;14.70;99.90
14670;DHT22;7423;48.722;9.350;2023-04-24T14:41:06;14.80;99.90
14670;DHT22;7423;48.722;9.350;2023-04-24T14:43:39;14.90;99.90
14670;DHT22;7423;48.722;9.350;2023-04-24T14:46:06;14.90;99.90
14670;DHT22;7423;48.722;9.350;2023-04-24T14:48:33;14.90;99.90
14670;DHT22;7423;48.722;9.350;2023-04-24T14:51:00;14.70;99.90
14670;DHT22;7423;48.722;9.350;2023-04-24T14:53:27;14.70;99.90
14670;DHT22;7423;48.722;9.350;2023-04-24T14:55:54;14.60;99.90
14670;DHT22;7423;48.722;9.350;2023-04-24T14:58:21;14.50;99.90
14670;DHT22;7423;48.722;9.350;2023-04-24T15:00:48;14.50;99.90
14670;DHT22;7423;48.722;9.350;2023-04-24T15:03:18;14.40;99.90
14670;DHT22;7423;48.722;9.350;2023-04-24T15:05:47;14.40;99.90
14670;DHT22;7423;48.722;9.350;2023-04-24T15:08:14;14.40;99.90
14670;DHT22;7423;48.722;9.350;2023-04-24T15:10:41;14.50;99.90
14670;DHT22;7423;48.722;9.350;2023-04-24T15:13:08;14.60;99.90
14670;DHT22;7423;48.722;9.350;2023-04-24T15:15:35;14.70;99.90
14670;DHT22;7423;48.722;9.350;2023-04-24T15:18:04;14.70;99.90
14670;DHT22;7423;48.722;9.350;2023-04-24T15:20:32;14.70;99.90
14670;DHT22;7423;48.722;9.350;2023-04-24T15:22:58;14.80;99.90
14670;DHT22;7423;48.722;9.350;2023-04-24T15:25:26;14.90;99.90
14670;DHT22;7423;48.722;9.350;2023-04-24T15:27:53;14.90;99.90
14670;DHT22;7423;48.722;9.350;2023-04-24T15:30:20;14.90;99.90
14670;DHT22;7423;48.722;9.350;2023-04-24T15:32:47;14.90;99.90
14670;DHT22;7423;48.722;9.350;2023-04-24T15:35:14;14.90;99.90
14670;DHT22;7423;48.722;9.350;2023-04-24T15:37:42;15.00;99.90
14670;DHT22;7423;48.722;9.350;2023-04-24T15:40:10;15.00;99.90
14670;DHT22;7423;48.722;9.350;2023-04-24T15:42:39;15.00;99.90
14670;DHT22;7423;48.722;9.350;2023-04-24T15:45:07;15.00;99.90
14670;DHT22;7423;48.722;9.350;2023-04-24T15:47:35;15.10;99.90
14670;DHT22;7423;48.722;9.350;2023-04-24T15:50:05;15.00;99.90
14670;DHT22;7423;48.722;9.350;2023-04-24T15:52:35;15.00;99.90
14670;DHT22;7423;48.722;9.350;2023-04-24T15:55:03;15.00;99.90
14670;DHT22;7423;48.722;9.350;2023-04-24T15:57:31;15.10;99.90
14670;DHT22;7423;48.722;9.350;2023-04-24T15:59:58;15.10;99.90